Terminal Aerodrome Forecast
Issued by NWS Charleston, SC

Home | Current Version | Previous Version | Text Only | Print | Product List | Glossary On
Versions: 1 2 3 4 5 6 7 8 9 10 11 12 13 14 15 16 17 18
000
FTUS42 KCHS 261307 AAA
TAFCHS
TAF AMD
KCHS 261307Z 2613/2712 28012G18KT P6SM SCT010
      TEMPO 2613/2614 BKN010
     FM261700 28018G27KT P6SM FEW040
     FM262200 28014G22KT P6SM VCTS BKN040CB
     FM270100 36013KT P6SM VCTS BKN040CB
     FM270300 01011KT P6SM SCT015 BKN040=

USA.gov is the U.S. government's official web portal to all federal, state and local government web resources and services.